Time;durP1;ratioP1;P1;durP2;ratioP2;P2;SDS_P1;SDS_P2;PMS_P1;PMS_P2;Temp;Humidity;BMP_temperature;BMP_pressure;BME280_temperature;BME280_humidity;BME280_pressure;Samples;Min_cycle;Max_cycle;Signal;HPM_P1;HPM_P2
2021/07/15 00:01:07;;;;;;;62.72;45.80;;;19.50;99.90;;;;;;5034020;28;20364;-65
2021/07/15 00:03:32;;;;;;;54.10;42.38;;;19.50;99.90;;;;;;5034806;28;20045;-64
2021/07/15 00:05:59;;;;;;;56.10;44.10;;;19.50;99.90;;;;;;5034040;28;20083;-64
2021/07/15 00:08:26;;;;;;;51.75;41.25;;;19.50;99.90;;;;;;5034374;28;20037;-64
2021/07/15 00:10:55;;;;;;;51.20;38.03;;;19.50;99.90;;;;;;5032908;28;20049;-64
2021/07/15 00:13:21;;;;;;;41.80;35.42;;;19.50;99.90;;;;;;5034391;28;20108;-64
2021/07/15 00:15:50;;;;;;;46.00;36.20;;;19.50;99.90;;;;;;5034181;28;20136;-64
2021/07/15 00:18:18;;;;;;;52.53;37.13;;;19.50;99.90;;;;;;5034372;28;20491;-65
2021/07/15 00:20:48;;;;;;;36.50;32.50;;;19.50;99.90;;;;;;5033797;28;20041;-64
2021/07/15 00:23:17;;;;;;;38.58;33.08;;;19.50;99.90;;;;;;5034205;28;20375;-65
2021/07/15 00:25:44;;;;;;;41.67;35.00;;;19.40;99.90;;;;;;5033773;28;20134;-64
2021/07/15 00:28:10;;;;;;;49.83;36.97;;;19.50;99.90;;;;;;5033173;28;20472;-65
2021/07/15 00:30:36;;;;;;;42.70;35.45;;;19.40;99.90;;;;;;5033698;28;20052;-64
2021/07/15 00:33:05;;;;;;;40.63;34.22;;;19.40;99.90;;;;;;5032671;28;20106;-65
2021/07/15 00:35:32;;;;;;;40.03;34.40;;;19.40;99.90;;;;;;5015741;28;20113;-65
2021/07/15 00:37:58;;;;;;;45.92;34.72;;;19.40;99.90;;;;;;5033778;28;20041;-64
2021/07/15 00:40:24;;;;;;;39.15;33.28;;;19.40;99.90;;;;;;5033039;28;20124;-65
2021/07/15 00:42:49;;;;;;;36.00;31.88;;;19.40;99.90;;;;;;5033929;28;20076;-64
2021/07/15 00:45:18;;;;;;;44.67;35.05;;;19.40;99.90;;;;;;5032857;28;20037;-65
2021/07/15 00:47:44;;;;;;;37.60;30.85;;;19.50;99.90;;;;;;5033642;28;20091;-65
2021/07/15 00:50:11;;;;;;;36.97;32.38;;;19.50;99.90;;;;;;5033425;28;20076;-65
2021/07/15 00:52:38;;;;;;;40.08;34.47;;;19.50;99.90;;;;;;5033490;28;20033;-65
2021/07/15 00:55:07;;;;;;;37.55;32.22;;;19.40;99.90;;;;;;5032807;28;20042;-64
2021/07/15 00:57:32;;;;;;;39.97;33.92;;;19.40;99.90;;;;;;5032181;28;20086;-64
2021/07/15 00:59:59;;;;;;;39.60;31.77;;;19.40;99.90;;;;;;5033341;28;20033;-65
2021/07/15 01:02:25;;;;;;;37.00;31.20;;;19.40;99.90;;;;;;5024726;28;20592;-65
2021/07/15 01:04:51;;;;;;;32.67;29.08;;;19.50;99.90;;;;;;5020764;28;20056;-65
2021/07/15 01:07:17;;;;;;;40.53;30.77;;;19.50;99.90;;;;;;5033429;28;20079;-65
2021/07/15 01:09:43;;;;;;;40.25;32.78;;;19.50;99.90;;;;;;5033207;28;20037;-65
2021/07/15 01:12:39;;;;;;;33.60;30.02;;;19.50;99.90;;;;;;5033005;28;20605;-65
2021/07/15 01:15:14;;;;;;;38.25;31.40;;;19.50;99.90;;;;;;5033328;28;20095;-65
2021/07/15 01:17:51;;;;;;;35.92;31.65;;;19.50;99.90;;;;;;5033087;28;20038;-65
2021/07/15 01:20:44;;;;;;;38.42;31.17;;;19.50;99.90;;;;;;5032109;28;20044;-64
2021/07/15 01:23:41;;;;;;;34.35;29.63;;;19.50;99.90;;;;;;5016019;28;20041;-65
2021/07/15 01:26:10;;;;;;;34.83;30.10;;;19.50;99.90;;;;;;5033040;28;20064;-65
2021/07/15 01:29:12;;;;;;;37.85;30.40;;;19.50;99.90;;;;;;5032940;28;20037;-65
2021/07/15 01:31:41;;;;;;;36.17;29.70;;;19.50;99.90;;;;;;5032337;28;20049;-65
2021/07/15 01:34:11;;;;;;;35.50;30.27;;;19.50;99.90;;;;;;5032937;28;20038;-65
2021/07/15 01:36:41;;;;;;;38.50;32.03;;;19.50;99.90;;;;;;5031800;28;20041;-64
2021/07/15 01:39:09;;;;;;;40.35;31.98;;;19.50;99.90;;;;;;5033399;28;20072;-64
2021/07/15 01:41:46;;;;;;;39.63;31.92;;;19.50;99.90;;;;;;5032235;28;20049;-65
2021/07/15 01:44:18;;;;;;;35.70;31.05;;;19.50;99.90;;;;;;5032672;28;20116;-65
2021/07/15 01:46:44;;;;;;;42.70;31.25;;;19.50;99.90;;;;;;5032286;28;20073;-64
2021/07/15 01:49:10;;;;;;;39.47;30.77;;;19.50;99.90;;;;;;5031939;28;20037;-64
2021/07/15 01:51:37;;;;;;;39.47;31.35;;;19.40;99.90;;;;;;5032439;28;20038;-64
2021/07/15 01:54:04;;;;;;;39.70;29.17;;;19.40;99.90;;;;;;5031621;28;20512;-64
2021/07/15 01:56:30;;;;;;;42.00;30.75;;;19.40;99.90;;;;;;5039623;28;20088;-64
2021/07/15 01:58:58;;;;;;;43.20;32.55;;;19.40;99.90;;;;;;5030571;28;20034;-64
2021/07/15 02:01:25;;;;;;;46.47;31.75;;;19.40;99.90;;;;;;5032127;28;20072;-64
2021/07/15 02:03:54;;;;;;;40.17;32.03;;;19.40;99.90;;;;;;5014206;28;20840;-64
2021/07/15 02:06:21;;;;;;;40.20;33.08;;;19.40;99.90;;;;;;5032113;28;20049;-65
2021/07/15 02:08:50;;;;;;;41.45;31.08;;;19.40;99.90;;;;;;5014220;28;20041;-65
2021/07/15 02:11:16;;;;;;;40.30;30.65;;;19.40;99.90;;;;;;5026062;28;20046;-64
2021/07/15 02:13:43;;;;;;;41.05;32.10;;;19.50;99.90;;;;;;5011941;28;20117;-65
2021/07/15 02:16:10;;;;;;;40.63;32.33;;;19.40;99.90;;;;;;5011680;28;20046;-65
2021/07/15 02:18:38;;;;;;;45.25;32.83;;;19.40;99.90;;;;;;5011738;28;20057;-65
2021/07/15 02:21:04;;;;;;;43.90;33.20;;;19.50;99.90;;;;;;5030689;28;20072;-64
2021/07/15 02:23:30;;;;;;;40.85;33.65;;;19.50;99.90;;;;;;5031020;28;20056;-64
2021/07/15 02:25:57;;;;;;;40.25;32.55;;;19.50;99.90;;;;;;5031588;28;20053;-65
2021/07/15 02:28:25;;;;;;;38.67;29.92;;;19.40;99.90;;;;;;5031302;28;20497;-65
2021/07/15 02:31:00;;;;;;;43.17;32.08;;;19.40;99.90;;;;;;5029617;28;20068;-64
2021/07/15 02:33:28;;;;;;;41.85;31.48;;;19.40;99.90;;;;;;5031209;28;20057;-64
2021/07/15 02:35:59;;;;;;;45.10;31.38;;;19.40;99.90;;;;;;5031407;28;20041;-65
2021/07/15 02:38:28;;;;;;;49.83;32.28;;;19.40;99.90;;;;;;5031710;28;20630;-65
2021/07/15 02:40:54;;;;;;;41.88;30.05;;;19.40;99.90;;;;;;5013230;28;20056;-64
2021/07/15 02:43:20;;;;;;;42.60;30.88;;;19.40;99.90;;;;;;5031507;28;20116;-64
2021/07/15 02:45:45;;;;;;;35.95;26.05;;;19.40;99.90;;;;;;5030270;28;20041;-65
2021/07/15 02:48:14;;;;;;;36.65;27.70;;;19.40;99.90;;;;;;5031634;28;20092;-64
2021/07/15 02:50:40;;;;;;;38.72;28.08;;;19.40;99.90;;;;;;5031236;28;20048;-65
2021/07/15 02:53:05;;;;;;;44.60;29.40;;;19.40;99.90;;;;;;5031445;28;20041;-64
2021/07/15 02:55:31;;;;;;;48.08;30.23;;;19.40;99.90;;;;;;5029634;28;20037;-65
2021/07/15 02:58:16;;;;;;;44.92;26.67;;;19.40;99.90;;;;;;5027012;28;20034;-64
2021/07/15 03:00:48;;;;;;;31.30;25.73;;;19.40;99.90;;;;;;5030929;28;20045;-64
2021/07/15 03:03:21;;;;;;;46.67;28.73;;;19.40;99.90;;;;;;5031192;28;20064;-65
2021/07/15 03:06:07;;;;;;;34.05;25.83;;;19.40;99.90;;;;;;5031162;28;20043;-65
2021/07/15 03:08:39;;;;;;;37.78;25.13;;;19.40;99.90;;;;;;5031266;28;20037;-65
2021/07/15 03:11:07;;;;;;;36.60;26.35;;;19.50;99.90;;;;;;5027696;28;20090;-64
2021/07/15 03:13:33;;;;;;;40.42;25.98;;;19.40;99.90;;;;;;5028973;28;20471;-65
2021/07/15 03:16:00;;;;;;;37.63;25.92;;;19.40;99.90;;;;;;5027282;28;20033;-65
2021/07/15 03:18:28;;;;;;;38.90;26.27;;;19.40;99.90;;;;;;5030714;28;20041;-64
2021/07/15 03:20:56;;;;;;;41.75;25.00;;;19.30;99.90;;;;;;5029613;28;20037;-65
2021/07/15 03:23:25;;;;;;;36.15;24.90;;;19.40;99.90;;;;;;5029778;28;20128;-65
2021/07/15 03:25:56;;;;;;;42.67;26.30;;;19.30;99.90;;;;;;5012267;28;20030;-65
2021/07/15 03:28:27;;;;;;;40.15;26.73;;;19.30;99.90;;;;;;5031094;28;20475;-65
2021/07/15 03:31:23;;;;;;;30.42;24.60;;;19.30;99.90;;;;;;5030172;28;20048;-65
2021/07/15 03:33:51;;;;;;;40.30;25.33;;;19.40;99.90;;;;;;5028151;28;20061;-65
2021/07/15 03:36:17;;;;;;;35.90;23.95;;;19.30;99.90;;;;;;5030664;28;20061;-65
2021/07/15 03:38:45;;;;;;;35.83;21.65;;;19.30;99.90;;;;;;5030625;28;20072;-65
2021/07/15 03:41:13;;;;;;;31.88;22.02;;;19.30;99.90;;;;;;5029849;28;20051;-65
2021/07/15 03:43:42;;;;;;;35.97;22.35;;;19.20;99.90;;;;;;5029730;28;20049;-65
2021/07/15 03:46:08;;;;;;;33.15;22.13;;;19.20;99.90;;;;;;5030504;28;20042;-65
2021/07/15 03:48:36;;;;;;;37.08;22.73;;;19.20;99.90;;;;;;5030357;28;20037;-64
2021/07/15 03:51:05;;;;;;;34.60;21.17;;;19.20;99.90;;;;;;5024706;28;20525;-65
2021/07/15 03:53:33;;;;;;;32.10;19.23;;;19.20;99.90;;;;;;5030169;28;20040;-64
2021/07/15 03:56:01;;;;;;;37.72;20.65;;;19.20;99.90;;;;;;5030890;28;20037;-65
2021/07/15 03:58:28;;;;;;;40.72;22.15;;;19.30;99.90;;;;;;5026679;28;20037;-65
2021/07/15 04:01:02;;;;;;;34.13;20.80;;;19.20;99.90;;;;;;5029620;28;20076;-65
2021/07/15 04:03:30;;;;;;;27.10;20.65;;;19.20;99.90;;;;;;5030018;28;20123;-65
2021/07/15 04:05:57;;;;;;;33.42;20.60;;;19.10;99.90;;;;;;5029329;28;20095;-65
2021/07/15 04:08:24;;;;;;;36.00;20.55;;;19.10;99.90;;;;;;5029992;28;20034;-65
2021/07/15 04:10:52;;;;;;;33.25;21.70;;;19.20;99.90;;;;;;5030300;28;20671;-65
2021/07/15 04:13:19;;;;;;;38.25;22.75;;;19.10;99.90;;;;;;5029228;28;20110;-64
2021/07/15 04:15:51;;;;;;;36.10;20.05;;;19.10;99.90;;;;;;5028955;28;20034;-65
2021/07/15 04:18:19;;;;;;;31.17;20.50;;;19.10;99.90;;;;;;5029759;28;20064;-65
2021/07/15 04:20:45;;;;;;;38.63;21.90;;;19.20;99.90;;;;;;5029290;28;20444;-65
2021/07/15 04:23:12;;;;;;;33.83;19.85;;;19.20;99.90;;;;;;5030459;28;20036;-65
2021/07/15 04:25:40;;;;;;;35.92;20.35;;;19.20;99.90;;;;;;5033880;28;20041;-65
2021/07/15 04:28:07;;;;;;;37.83;19.85;;;19.20;99.90;;;;;;5032949;28;20037;-65
2021/07/15 04:30:33;;;;;;;33.80;19.83;;;19.20;99.90;;;;;;5032900;28;20379;-65
2021/07/15 04:33:08;;;;;;;35.70;19.40;;;19.20;99.90;;;;;;5034001;28;20088;-65
2021/07/15 04:35:35;;;;;;;31.45;18.33;;;19.20;99.90;;;;;;5033409;28;20619;-65
2021/07/15 04:38:03;;;;;;;39.22;21.48;;;19.20;99.90;;;;;;5033371;28;20716;-65
2021/07/15 04:40:30;;;;;;;37.70;22.00;;;19.10;99.90;;;;;;5031838;28;20101;-65
2021/07/15 04:43:03;;;;;;;39.42;21.15;;;19.00;99.90;;;;;;5025261;28;20038;-65
2021/07/15 04:45:30;;;;;;;30.77;20.27;;;19.10;99.90;;;;;;5028106;28;20075;-65
2021/07/15 04:47:57;;;;;;;33.75;20.90;;;19.10;99.90;;;;;;5031214;28;20087;-65
2021/07/15 04:50:27;;;;;;;32.70;20.05;;;19.10;99.90;;;;;;5031454;28;20498;-65
2021/07/15 04:52:58;;;;;;;30.60;18.83;;;19.10;99.90;;;;;;5033536;28;20061;-65
2021/07/15 04:55:25;;;;;;;35.05;21.25;;;19.10;99.90;;;;;;5080558;22;20060;-62
2021/07/15 04:57:51;;;;;;;32.30;20.70;;;19.10;99.90;;;;;;5081922;28;20047;-62
2021/07/15 05:00:18;;;;;;;37.40;22.15;;;19.10;99.90;;;;;;5083790;28;20062;-62
2021/07/15 05:02:44;;;;;;;36.80;21.40;;;19.10;99.90;;;;;;5084853;28;20051;-62
2021/07/15 05:05:12;;;;;;;26.83;18.67;;;19.00;99.90;;;;;;5084054;28;20083;-61
2021/07/15 05:07:39;;;;;;;33.58;19.77;;;19.10;99.90;;;;;;5093585;28;20101;-63
2021/07/15 05:10:07;;;;;;;35.53;20.63;;;19.10;99.90;;;;;;5082128;28;20060;-63
2021/07/15 05:12:33;;;;;;;33.80;19.45;;;19.00;99.90;;;;;;5086018;28;20036;-63
2021/07/15 05:15:00;;;;;;;34.45;22.30;;;19.10;99.90;;;;;;5088839;28;20093;-63
2021/07/15 05:17:26;;;;;;;35.38;20.13;;;19.00;99.90;;;;;;5093507;28;20032;-62
2021/07/15 05:19:51;;;;;;;35.67;22.15;;;19.00;99.90;;;;;;5087636;28;20039;-62
2021/07/15 05:22:18;;;;;;;38.40;21.60;;;18.90;99.90;;;;;;5082055;28;20040;-62
2021/07/15 05:24:43;;;;;;;38.47;22.63;;;18.90;99.90;;;;;;5083782;28;20641;-62
2021/07/15 05:27:09;;;;;;;31.63;21.38;;;19.00;99.90;;;;;;5085218;28;20043;-62
2021/07/15 05:29:35;;;;;;;33.85;21.42;;;19.00;99.90;;;;;;5085562;28;20032;-62
2021/07/15 05:32:01;;;;;;;29.52;20.30;;;19.00;99.90;;;;;;5085145;28;20049;-62
2021/07/15 05:34:27;;;;;;;27.95;19.70;;;19.10;99.90;;;;;;5084356;28;20040;-62
2021/07/15 05:36:53;;;;;;;31.13;20.63;;;19.00;99.90;;;;;;5087542;28;20048;-62
2021/07/15 05:39:19;;;;;;;33.05;20.48;;;19.10;99.90;;;;;;5092856;28;20113;-62
2021/07/15 05:41:45;;;;;;;27.55;19.63;;;19.10;99.90;;;;;;5092947;28;20047;-62
2021/07/15 05:44:11;;;;;;;41.25;19.05;;;19.10;99.90;;;;;;5090383;28;20032;-62
2021/07/15 05:46:36;;;;;;;29.52;18.58;;;19.20;99.90;;;;;;5089755;28;20428;-63
2021/07/15 05:49:02;;;;;;;29.50;18.42;;;19.20;99.90;;;;;;5088052;28;20040;-62
2021/07/15 05:51:28;;;;;;;26.40;17.15;;;19.20;99.90;;;;;;5079783;28;20044;-62
2021/07/15 05:53:54;;;;;;;31.15;19.67;;;19.20;99.90;;;;;;5084283;28;20121;-63
2021/07/15 05:56:19;;;;;;;32.80;19.65;;;19.10;99.90;;;;;;5075353;28;20059;-62
2021/07/15 05:58:45;;;;;;;35.60;21.85;;;19.20;99.90;;;;;;5082937;28;20123;-62
2021/07/15 06:01:11;;;;;;;36.25;21.15;;;19.10;99.90;;;;;;5088681;28;20145;-62
2021/07/15 06:03:36;;;;;;;35.92;20.92;;;19.10;99.90;;;;;;5087303;28;20123;-63
2021/07/15 06:06:03;;;;;;;35.83;22.65;;;19.00;99.90;;;;;;5091260;28;20495;-63
2021/07/15 06:08:29;;;;;;;34.85;21.92;;;19.00;99.90;;;;;;5090373;28;20040;-62
2021/07/15 06:10:55;;;;;;;38.95;22.58;;;19.00;99.90;;;;;;5091475;28;20059;-63
2021/07/15 06:13:20;;;;;;;34.10;20.83;;;19.00;99.90;;;;;;5091304;28;20432;-62
2021/07/15 06:15:46;;;;;;;33.72;22.48;;;19.00;99.90;;;;;;5091456;28;20385;-63
2021/07/15 06:18:12;;;;;;;35.88;22.05;;;19.00;99.90;;;;;;5091863;28;20500;-63
2021/07/15 06:20:37;;;;;;;34.88;20.83;;;19.10;99.90;;;;;;5090542;28;20043;-63
2021/07/15 06:23:03;;;;;;;29.65;20.35;;;19.00;99.90;;;;;;5091015;28;20710;-63
2021/07/15 06:25:29;;;;;;;43.95;22.77;;;19.00;99.90;;;;;;5091754;28;20040;-63
2021/07/15 06:27:55;;;;;;;34.78;20.63;;;19.00;99.90;;;;;;5090015;28;20036;-63
2021/07/15 06:30:21;;;;;;;34.97;22.25;;;18.90;99.90;;;;;;5092103;28;20036;-63
2021/07/15 06:32:47;;;;;;;29.00;22.67;;;18.80;99.90;;;;;;5091436;28;20405;-63
2021/07/15 06:35:15;;;;;;;34.78;20.50;;;18.90;99.90;;;;;;5091989;28;20040;-63
2021/07/15 06:37:42;;;;;;;34.67;21.83;;;18.90;99.90;;;;;;5089419;28;20074;-63
2021/07/15 06:40:12;;;;;;;31.05;20.17;;;18.90;99.90;;;;;;5091737;28;20036;-63
2021/07/15 06:42:38;;;;;;;29.25;18.17;;;18.90;99.90;;;;;;5091094;28;20032;-63
2021/07/15 06:45:06;;;;;;;28.17;18.83;;;19.00;99.90;;;;;;5090013;28;20040;-63
2021/07/15 06:47:32;;;;;;;29.98;18.27;;;19.00;99.90;;;;;;5090936;28;20043;-63
2021/07/15 06:49:58;;;;;;;25.88;18.08;;;19.10;99.90;;;;;;5090673;28;20055;-63
2021/07/15 06:52:29;;;;;;;26.80;16.25;;;19.00;99.90;;;;;;5078149;28;20465;-63
2021/07/15 06:54:56;;;;;;;30.05;18.25;;;19.10;99.90;;;;;;5085545;28;20131;-63
2021/07/15 06:57:22;;;;;;;23.88;17.02;;;19.10;99.90;;;;;;5089960;28;20119;-63
2021/07/15 06:59:47;;;;;;;25.48;14.45;;;19.20;99.90;;;;;;5077422;28;20118;-63
2021/07/15 07:02:13;;;;;;;20.77;15.05;;;19.20;99.90;;;;;;5088273;28;20628;-63
2021/07/15 07:04:38;;;;;;;18.98;13.18;;;19.20;99.90;;;;;;5089273;28;20063;-62
2021/07/15 07:07:04;;;;;;;18.45;12.73;;;19.20;99.90;;;;;;5089932;28;20469;-63
2021/07/15 07:09:30;;;;;;;20.70;12.35;;;19.20;99.90;;;;;;5089854;28;20047;-63
2021/07/15 07:11:56;;;;;;;18.90;12.32;;;19.20;99.90;;;;;;5071776;28;20385;-63
2021/07/15 07:14:21;;;;;;;25.30;13.00;;;19.20;99.90;;;;;;5092043;28;20448;-63
2021/07/15 07:16:47;;;;;;;17.98;13.23;;;19.20;99.90;;;;;;5110768;28;20059;-63
2021/07/15 07:19:13;;;;;;;17.38;12.23;;;19.20;99.90;;;;;;5095701;28;20399;-63
2021/07/15 07:21:38;;;;;;;15.82;11.63;;;19.20;99.90;;;;;;5089033;28;20035;-62
2021/07/15 07:24:04;;;;;;;17.45;10.35;;;19.20;99.90;;;;;;5101558;28;20493;-63
2021/07/15 07:26:30;;;;;;;18.25;11.25;;;19.20;99.90;;;;;;5090365;28;20111;-63
2021/07/15 07:28:55;;;;;;;14.27;10.95;;;19.10;99.90;;;;;;5089918;28;20036;-63
2021/07/15 07:31:21;;;;;;;16.52;11.18;;;19.10;99.90;;;;;;5090486;28;20069;-63
2021/07/15 07:33:46;;;;;;;16.92;10.38;;;19.10;99.90;;;;;;5090350;28;20040;-63
2021/07/15 07:36:12;;;;;;;18.05;10.63;;;18.90;99.90;;;;;;5091116;28;20668;-63
2021/07/15 07:38:38;;;;;;;14.55;11.15;;;18.90;99.90;;;;;;5071006;28;20041;-62
2021/07/15 07:41:04;;;;;;;16.00;11.30;;;18.90;99.90;;;;;;5089160;28;20531;-62
2021/07/15 07:43:30;;;;;;;14.45;12.68;;;18.80;99.90;;;;;;5086595;28;20044;-63
2021/07/15 07:45:56;;;;;;;17.00;12.25;;;18.70;99.90;;;;;;5084829;28;20059;-63
2021/07/15 07:48:22;;;;;;;14.07;11.13;;;18.60;99.90;;;;;;5090260;28;20041;-63
2021/07/15 07:50:48;;;;;;;20.00;12.02;;;18.50;99.90;;;;;;5089340;28;20056;-62
2021/07/15 07:53:13;;;;;;;25.13;12.60;;;18.50;99.90;;;;;;5089843;28;20103;-62
2021/07/15 07:55:43;;;;;;;21.08;13.40;;;18.40;99.90;;;;;;5086952;28;20078;-62
2021/07/15 07:58:09;;;;;;;24.15;15.27;;;18.20;99.90;;;;;;5092543;28;20054;-62
2021/07/15 08:00:35;;;;;;;27.45;18.17;;;18.20;99.90;;;;;;5099499;28;20563;-63
2021/07/15 08:03:00;;;;;;;29.92;18.30;;;18.10;99.90;;;;;;5101670;28;20123;-63
2021/07/15 08:05:26;;;;;;;41.05;22.70;;;18.10;99.90;;;;;;5090386;28;20059;-63
2021/07/15 08:07:52;;;;;;;36.00;20.23;;;18.10;99.90;;;;;;5083148;28;20115;-63
2021/07/15 08:10:19;;;;;;;29.73;17.58;;;18.10;99.90;;;;;;5097090;28;20473;-63
2021/07/15 08:12:45;;;;;;;43.38;23.17;;;18.10;99.90;;;;;;5093783;28;20036;-63
2021/07/15 08:15:13;;;;;;;42.63;22.17;;;18.00;99.90;;;;;;5093930;28;20043;-63
2021/07/15 08:17:39;;;;;;;40.83;21.67;;;18.10;99.90;;;;;;5093352;28;20047;-64
2021/07/15 08:20:07;;;;;;;35.05;19.23;;;18.10;99.90;;;;;;5093193;28;20039;-63
2021/07/15 08:22:33;;;;;;;47.28;23.27;;;18.10;99.90;;;;;;5093665;28;20068;-64
2021/07/15 08:24:58;;;;;;;44.85;22.92;;;18.10;99.90;;;;;;5093096;28;20040;-64
2021/07/15 08:27:24;;;;;;;36.17;21.20;;;18.20;99.90;;;;;;5086534;28;20044;-63
2021/07/15 08:29:49;;;;;;;37.03;19.50;;;18.20;99.90;;;;;;5080938;28;20049;-64
2021/07/15 08:32:15;;;;;;;43.30;22.05;;;18.30;99.90;;;;;;5084665;28;20036;-64
2021/07/15 08:34:41;;;;;;;52.85;24.33;;;18.20;99.90;;;;;;5094009;28;20032;-64
2021/07/15 08:37:06;;;;;;;46.72;23.20;;;18.30;99.90;;;;;;5092888;28;20130;-64
2021/07/15 08:39:33;;;;;;;48.95;22.58;;;18.30;99.90;;;;;;5093309;28;20048;-63
2021/07/15 08:42:00;;;;;;;44.15;23.90;;;18.10;99.90;;;;;;5093554;28;20032;-63
2021/07/15 08:44:26;;;;;;;47.15;22.67;;;18.20;99.90;;;;;;5086894;28;20354;-64
2021/07/15 08:46:52;;;;;;;43.15;21.33;;;18.30;99.90;;;;;;5088412;28;20083;-63
2021/07/15 08:49:20;;;;;;;42.13;22.02;;;18.20;99.90;;;;;;5092930;28;20119;-63
2021/07/15 08:51:47;;;;;;;47.10;24.63;;;18.20;99.90;;;;;;5078291;28;20118;-63
2021/07/15 08:54:15;;;;;;;38.78;22.08;;;18.20;99.90;;;;;;5090495;28;20111;-63
2021/07/15 08:56:47;;;;;;;47.25;24.35;;;18.20;99.90;;;;;;5092243;28;20090;-63
2021/07/15 08:59:14;;;;;;;;;;;18.20;99.90;;;;;;5086209;28;20044;-63
2021/07/15 09:01:55;;;;;;;38.38;22.67;;;18.20;99.90;;;;;;5089689;28;19915;-63
2021/07/15 09:04:22;;;;;;;37.20;22.23;;;18.20;99.90;;;;;;5089836;28;20515;-63
2021/07/15 09:06:50;;;;;;;31.55;19.55;;;18.20;99.90;;;;;;5092839;28;20052;-63
2021/07/15 09:09:16;;;;;;;29.80;19.92;;;18.20;99.90;;;;;;5092872;28;20085;-63
2021/07/15 09:11:42;;;;;;;29.30;19.42;;;18.30;99.90;;;;;;5091221;28;20039;-63
2021/07/15 09:14:17;;;;;;;32.63;19.92;;;18.30;99.90;;;;;;5090999;28;20111;-63
2021/07/15 09:16:58;;;;;;;31.27;19.75;;;18.40;99.90;;;;;;5093031;28;20093;-63
2021/07/15 09:19:25;;;;;;;32.00;20.80;;;18.40;99.90;;;;;;5093157;28;20067;-63
2021/07/15 09:21:52;;;;;;;37.58;22.50;;;18.50;99.90;;;;;;5091611;28;20048;-63
2021/07/15 09:24:31;;;;;;;31.23;19.85;;;18.50;99.90;;;;;;5091419;28;20048;-63
2021/07/15 09:26:58;;;;;;;28.58;20.48;;;18.60;99.90;;;;;;5092973;28;20039;-63
2021/07/15 09:29:24;;;;;;;28.48;19.45;;;18.60;99.90;;;;;;5092512;28;20036;-63
2021/07/15 09:31:56;;;;;;;27.65;17.95;;;18.70;99.90;;;;;;5091457;28;20067;-63
2021/07/15 09:34:23;;;;;;;25.60;16.13;;;18.70;99.90;;;;;;5093053;28;20528;-63
2021/07/15 09:36:50;;;;;;;23.77;15.35;;;18.70;99.90;;;;;;5081674;28;20038;-63
2021/07/15 09:39:21;;;;;;;24.48;17.00;;;18.40;99.90;;;;;;5092874;28;20115;-63
2021/07/15 09:42:05;;;;;;;;;;;18.40;99.90;;;;;;5092703;28;20121;-63
2021/07/15 09:44:35;;;;;;;26.05;14.38;;;18.40;99.90;;;;;;5076827;28;20383;-63
2021/07/15 09:47:05;;;;;;;22.98;15.82;;;18.30;99.90;;;;;;5092325;28;20588;-61
2021/07/15 09:49:35;;;;;;;23.35;14.82;;;18.30;99.90;;;;;;5092556;28;20032;-62
2021/07/15 09:52:01;;;;;;;22.75;14.60;;;18.40;99.90;;;;;;5092650;28;20101;-62
2021/07/15 09:54:28;;;;;;;23.73;16.50;;;18.30;99.90;;;;;;5090934;28;20377;-62
2021/07/15 09:56:54;;;;;;;23.85;15.90;;;18.40;99.90;;;;;;5092450;28;20375;-62
2021/07/15 09:59:20;;;;;;;26.45;16.02;;;18.50;99.90;;;;;;5092477;28;20063;-62
2021/07/15 10:01:51;;;;;;;28.73;16.98;;;18.40;99.90;;;;;;5092321;28;20127;-62
2021/07/15 10:04:26;;;;;;;28.80;16.17;;;18.50;99.90;;;;;;5092031;28;20032;-62
2021/07/15 10:06:54;;;;;;;26.40;16.27;;;18.40;99.90;;;;;;5089129;28;20036;-62
2021/07/15 10:09:37;;;;;;;28.20;16.10;;;18.40;99.90;;;;;;5091056;28;20517;-62
2021/07/15 10:12:23;;;;;;;28.33;16.23;;;18.40;99.90;;;;;;5092202;28;20475;-62
2021/07/15 10:14:49;;;;;;;28.75;17.02;;;18.50;99.90;;;;;;5092259;28;20105;-62
2021/07/15 10:17:15;;;;;;;30.85;17.95;;;18.60;99.90;;;;;;5092009;28;20066;-62
2021/07/15 10:19:40;;;;;;;25.73;15.25;;;18.80;99.90;;;;;;5091557;28;20036;-62
2021/07/15 10:22:08;;;;;;;28.48;15.25;;;18.90;99.90;;;;;;5091768;28;20636;-62
2021/07/15 10:24:35;;;;;;;27.92;15.93;;;18.90;99.90;;;;;;5092012;28;20036;-62
2021/07/15 10:27:05;;;;;;;24.77;14.38;;;19.00;99.90;;;;;;5085317;28;20094;-62
2021/07/15 10:29:32;;;;;;;23.38;14.82;;;19.10;99.90;;;;;;5071857;28;20041;-62
2021/07/15 10:31:59;;;;;;;21.55;12.63;;;19.30;99.90;;;;;;5071528;28;20396;-62
2021/07/15 10:34:25;;;;;;;23.23;12.35;;;19.20;99.90;;;;;;5071620;28;20124;-62
2021/07/15 10:36:55;;;;;;;26.23;12.98;;;19.30;99.90;;;;;;5075983;28;20097;-62
2021/07/15 10:39:25;;;;;;;24.20;11.88;;;19.30;99.90;;;;;;5082099;28;20406;-62
2021/07/15 10:41:54;;;;;;;22.58;12.77;;;19.20;99.90;;;;;;5087287;28;20048;-63
2021/07/15 10:44:21;;;;;;;25.05;13.48;;;19.30;99.90;;;;;;5087717;28;20639;-62
2021/07/15 10:46:53;;;;;;;27.52;13.60;;;19.50;99.90;;;;;;5087724;28;20484;-63
2021/07/15 10:49:20;;;;;;;26.17;12.63;;;19.60;99.90;;;;;;5073147;28;20039;-63
2021/07/15 10:51:48;;;;;;;18.30;12.38;;;19.40;99.90;;;;;;5086020;28;20401;-63
2021/07/15 10:54:16;;;;;;;23.70;12.25;;;19.60;99.90;;;;;;5087459;28;20044;-63
2021/07/15 10:56:48;;;;;;;24.17;14.05;;;19.60;99.90;;;;;;5085027;28;20494;-63
2021/07/15 10:59:28;;;;;;;24.33;13.60;;;19.60;99.90;;;;;;5090934;28;20111;-64
2021/07/15 11:01:56;;;;;;;26.02;12.07;;;19.50;99.90;;;;;;5091303;28;20190;-64
2021/07/15 11:04:42;;;;;;;20.23;11.77;;;19.60;99.90;;;;;;5091482;28;20123;-64
2021/07/15 11:07:29;;;;;;;21.40;12.35;;;19.50;99.90;;;;;;5086652;28;20473;-64
2021/07/15 11:10:18;;;;;;;24.67;12.40;;;19.50;99.90;;;;;;5091360;28;20028;-64
2021/07/15 11:13:00;;;;;;;16.98;12.10;;;19.50;99.90;;;;;;5091311;28;20044;-64
2021/07/15 11:15:50;;;;;;;22.58;12.70;;;19.60;99.90;;;;;;5085602;28;20448;-64
2021/07/15 11:18:37;;;;;;;18.27;12.18;;;19.60;99.90;;;;;;5091312;28;20548;-64
2021/07/15 11:21:29;;;;;;;21.40;11.63;;;19.50;99.90;;;;;;5090925;28;20132;-64
2021/07/15 11:24:04;;;;;;;19.30;11.25;;;19.70;99.90;;;;;;5091100;28;20032;-64
2021/07/15 11:26:32;;;;;;;20.50;12.07;;;19.80;99.90;;;;;;5089655;28;20063;-64
2021/07/15 11:28:59;;;;;;;23.50;10.70;;;19.70;99.90;;;;;;5091289;28;20092;-64
2021/07/15 11:31:51;;;;;;;22.55;11.13;;;19.70;99.90;;;;;;5090338;28;20040;-64
2021/07/15 11:34:33;;;;;;;18.00;10.07;;;19.80;99.90;;;;;;5093307;28;20063;-64
2021/07/15 11:37:31;;;;;;;20.75;12.27;;;19.70;99.90;;;;;;5095335;28;20450;-63
2021/07/15 11:39:58;;;;;;;22.23;12.15;;;19.90;99.90;;;;;;5095307;28;20447;-64
2021/07/15 11:42:27;;;;;;;21.10;10.95;;;20.00;99.90;;;;;;5095026;28;20043;-64
2021/07/15 11:45:09;;;;;;;18.52;10.23;;;20.20;99.90;;;;;;5095115;28;20097;-64
2021/07/15 11:47:50;;;;;;;18.35;10.75;;;20.00;99.90;;;;;;5092587;28;20469;-64
2021/07/15 11:50:31;;;;;;;20.53;11.73;;;20.00;99.90;;;;;;5095131;28;20054;-64
2021/07/15 11:53:16;;;;;;;19.47;9.60;;;20.10;99.90;;;;;;5095057;28;20044;-64
2021/07/15 11:55:43;;;;;;;19.67;10.48;;;20.10;99.90;;;;;;5094982;28;20123;-64
2021/07/15 11:58:47;;;;;;;20.92;10.48;;;19.90;99.90;;;;;;5094937;28;20534;-64
2021/07/15 12:01:20;;;;;;;20.65;11.57;;;19.60;99.90;;;;;;5094760;28;20382;-64
2021/07/15 12:04:04;;;;;;;19.80;11.15;;;19.70;99.90;;;;;;5093424;28;20068;-64
2021/07/15 12:06:32;;;;;;;21.15;11.48;;;19.70;99.90;;;;;;5094005;28;20036;-64
2021/07/15 12:09:05;;;;;;;16.80;10.05;;;19.70;99.90;;;;;;5091054;28;20051;-64
2021/07/15 12:11:32;;;;;;;18.77;12.30;;;19.50;99.90;;;;;;5094779;28;20048;-64
2021/07/15 12:14:01;;;;;;;18.85;11.88;;;19.50;99.90;;;;;;5094479;28;20122;-64
2021/07/15 12:16:27;;;;;;;19.83;11.95;;;19.50;99.90;;;;;;5094714;28;20111;-64
2021/07/15 12:19:00;;;;;;;16.75;11.48;;;19.50;99.90;;;;;;5094341;28;20039;-64
2021/07/15 12:21:25;;;;;;;18.63;12.00;;;19.50;99.90;;;;;;5094216;28;20039;-64
2021/07/15 12:23:51;;;;;;;25.55;13.02;;;19.40;99.90;;;;;;5094239;28;20036;-64
2021/07/15 12:26:20;;;;;;;16.45;11.52;;;19.40;99.90;;;;;;5093197;28;20039;-64
2021/07/15 12:28:47;;;;;;;21.65;11.45;;;19.30;99.90;;;;;;5094202;28;20043;-64
2021/07/15 12:31:20;;;;;;;24.38;12.60;;;19.20;99.90;;;;;;5094231;28;20097;-64
2021/07/15 12:33:49;;;;;;;22.20;11.43;;;19.30;99.90;;;;;;5094031;28;20046;-64
2021/07/15 12:36:16;;;;;;;20.90;11.90;;;19.30;99.90;;;;;;5086118;28;20036;-64
2021/07/15 12:38:44;;;;;;;22.88;13.45;;;19.30;99.90;;;;;;5079502;28;20032;-64